Tasman Mariner — VRWW8 — position and weather

sailwx.info

Track history (hours):
 
Tides and Currents Weather Stations Pressure Air Temp Water Temp Dewpoint Dewpoint Depression Visibility Wind Speed Wind Dir Waves Ship Positions

Tasman Mariner

Last reported at 2016-Aug-03 04:33 UTC. Time now 2016-Aug-24 23:16 UTC.
Position N 01°13' E 103°56'.
Warning: this ship's position is 21 days out of date.

Length 184 m; beam 27 m; draft 10 m.

Type: Ship (hazmat cat C). MMSI: 477860000.

Date/timePositionNaut miles runAvg speedWind from/ knotsBaromVisibWave heightAir tempDewpointWater temp
2016-Aug-03 04:33N 01°13' E 103°56'1211.7
2016-Aug-03 03:33N 01°07' E 103°45'6512.3
2016-Aug-02 22:14N 01°38' E 102°48'1810.6
2016-Aug-02 20:32N 01°46' E 102°32'1010.1
2016-Aug-02 19:33N 01°50' E 102°23'14 9.7
2016-Aug-02 18:08N 01°57' E 102°11'  
2016-Jul-29 02:21N 01°57' E 102°16'911.1
2016-Jul-29 01:33N 01°53' E 102°24'1211.4
2016-Jul-29 00:31N 01°48' E 102°35'7410.6
2016-Jul-28 17:33N 01°12' E 103°40'7 6.6
2016-Jul-28 16:33N 01°18' E 103°43'0 0.1
2016-Jul-28 15:30N 01°18' E 103°43'0 0.0
2016-Jul-28 14:06N 01°18' E 103°43'0 0.0
2016-Jul-28 13:18N 01°18' E 103°43'0 0.0
2016-Jul-28 12:06N 01°18' E 103°43'0 0.0
2016-Jul-28 11:24N 01°18' E 103°43'0 0.0
2016-Jul-28 10:30N 01°18' E 103°43'0 0.0
2016-Jul-28 08:06N 01°18' E 103°43'0 0.0
2016-Jul-28 07:24N 01°18' E 103°43'0 0.0
2016-Jul-28 05:15N 01°18' E 103°43'0 0.0
2016-Jul-28 04:30N 01°18' E 103°43'0 0.0
2016-Jul-28 03:30N 01°18' E 103°43'0 0.0
2016-Jul-28 01:23N 01°18' E 103°43'1 1.5
2016-Jul-28 00:32N 01°17' E 103°44'8 8.1
2016-Jul-27 23:33N 01°12' E 103°51'4 3.4
2016-Jul-27 22:30N 01°16' E 103°50'0 0.1
2016-Jul-27 21:33N 01°16' E 103°50'0 0.0
2016-Jul-27 20:30N 01°16' E 103°50'0 0.0
2016-Jul-27 19:30N 01°16' E 103°50'0 0.0
2016-Jul-27 18:33N 01°16' E 103°50'0 0.0
2016-Jul-27 17:33N 01°16' E 103°50'0 0.0
2016-Jul-27 16:33N 01°16' E 103°50'0 0.0
2016-Jul-27 15:32N 01°16' E 103°50'0 0.0
2016-Jul-27 14:32N 01°16' E 103°50'0 0.0
2016-Jul-27 13:32N 01°16' E 103°50'0 0.0
2016-Jul-27 12:29N 01°16' E 103°50'0 0.0
2016-Jul-27 11:32N 01°16' E 103°50'0 0.0
2016-Jul-27 10:32N 01°16' E 103°50'0 0.0
2016-Jul-27 09:26N 01°16' E 103°50'0 0.1
2016-Jul-27 08:32N 01°16' E 103°50'0 0.1
2016-Jul-27 07:32N 01°16' E 103°50'0 0.0
2016-Jul-27 06:32N 01°16' E 103°50'0 0.0
2016-Jul-27 05:32N 01°16' E 103°50'0 0.0
2016-Jul-27 04:32N 01°16' E 103°50'0 0.0
2016-Jul-27 03:32N 01°16' E 103°50'0 0.0
2016-Jul-27 02:32N 01°16' E 103°50'0 0.0
2016-Jul-27 01:32N 01°16' E 103°50'2 1.6
2016-Jul-27 00:33N 01°15' E 103°51'3 2.8
2016-Jul-26 23:33N 01°16' E 103°54'0 0.1
2016-Jul-26 22:18N 01°16' E 103°54'0 0.1
2016-Jul-26 21:18N 01°16' E 103°54'0 0.0
2016-Jul-26 20:24N 01°16' E 103°54'0 0.1
2016-Jul-26 19:24N 01°16' E 103°54'0 0.0
2016-Jul-26 18:27N 01°16' E 103°54'0 0.0
2016-Jul-26 17:29N 01°16' E 103°54'0 0.0
2016-Jul-26 16:33N 01°16' E 103°54'0 0.1
2016-Jul-26 15:30N 01°16' E 103°54'0 0.1
2016-Jul-26 14:30N 01°16' E 103°54'0 0.0
2016-Jul-26 13:29N 01°16' E 103°54'0 0.0
2016-Jul-26 12:30N 01°16' E 103°54'0 0.1
2016-Jul-26 11:29N 01°16' E 103°54'0 0.1
2016-Jul-26 10:24N 01°16' E 103°54'0 0.0
2016-Jul-26 09:33N 01°16' E 103°54'0 0.1
2016-Jul-26 08:29N 01°16' E 103°54'0 0.1
2016-Jul-26 07:24N 01°16' E 103°54'0 0.1
2016-Jul-26 06:24N 01°16' E 103°54'0 0.0
2016-Jul-26 05:23N 01°16' E 103°54'0 0.1
2016-Jul-26 04:29N 01°16' E 103°54'0 0.1
2016-Jul-26 03:17N 01°16' E 103°54'0 0.1
2016-Jul-26 01:23N 01°16' E 103°54'0 0.0
2016-Jul-26 00:32N 01°16' E 103°54'0 0.0
2016-Jul-25 23:29N 01°16' E 103°54'0 0.1
2016-Jul-25 22:29N 01°16' E 103°54'0 0.0
2016-Jul-25 21:32N 01°16' E 103°54'0 0.0
2016-Jul-25 20:29N 01°16' E 103°54'0 0.2
2016-Jul-25 19:32N 01°16' E 103°54'0 0.0
2016-Jul-25 18:32N 01°16' E 103°54'0 0.0
2016-Jul-25 17:26N 01°16' E 103°54'0 0.0
2016-Jul-25 15:23N 01°16' E 103°54'0 0.0
2016-Jul-25 14:23N 01°16' E 103°54'0 0.0
2016-Jul-25 13:29N 01°16' E 103°54'0 0.0
2016-Jul-25 12:29N 01°16' E 103°54'0 0.1
2016-Jul-25 11:32N 01°16' E 103°54'0 0.1
2016-Jul-25 10:26N 01°16' E 103°54'0 0.1
2016-Jul-25 09:32N 01°16' E 103°54'0 0.0
2016-Jul-25 08:26N 01°16' E 103°54'0 0.1
2016-Jul-25 07:29N 01°16' E 103°54'0 0.1
2016-Jul-25 06:29N 01°16' E 103°54'0 0.1
2016-Jul-25 05:29N 01°16' E 103°54'0 0.0
2016-Jul-25 04:27N 01°16' E 103°54'0 0.0
2016-Jul-25 03:20N 01°16' E 103°54'0 0.0
2016-Jul-25 02:29N 01°16' E 103°54'0 0.1
2016-Jul-25 01:17N 01°16' E 103°54'0 0.0
2016-Jul-25 00:32N 01°16' E 103°54'0 0.0
2016-Jul-24 23:26N 01°16' E 103°54'0 0.1
2016-Jul-24 22:29N 01°16' E 103°54'0 0.1
2016-Jul-24 21:29N 01°16' E 103°54'0 0.1
2016-Jul-24 20:26N 01°16' E 103°54'0 0.0
2016-Jul-24 19:29N 01°16' E 103°54'0 0.0
2016-Jul-24 18:29N 01°16' E 103°54'0 0.2
2016-Jul-24 17:29N 01°16' E 103°54'0 0.1
2016-Jul-24 16:29N 01°16' E 103°54'0 0.0
2016-Jul-24 15:32N 01°16' E 103°54'0 0.0
2016-Jul-24 14:29N 01°16' E 103°54'0 0.0
2016-Jul-24 13:29N 01°16' E 103°54'0 0.1
2016-Jul-24 12:29N 01°16' E 103°54'0 0.0
2016-Jul-24 11:23N 01°16' E 103°54'0 0.1
2016-Jul-24 10:29N 01°16' E 103°54'0 0.1
2016-Jul-24 09:29N 01°16' E 103°54'0 0.0
2016-Jul-24 08:32N 01°16' E 103°54'0 0.0
2016-Jul-24 07:20N 01°16' E 103°54'0 0.2
2016-Jul-24 06:32N 01°16' E 103°54'0 0.1
2016-Jul-24 05:32N 01°16' E 103°54'  
Track history (hours):
 
Tides and Currents Weather Stations Pressure Air Temp Water Temp Dewpoint Dewpoint Depression Visibility Wind Speed Wind Dir Waves Ship Positions

Tasman Mariner

Last reported at 2016-Aug-03 04:33 UTC. Time now 2016-Aug-24 23:16 UTC.
Position N 01°13' E 103°56'.
Warning: this ship's position is 21 days out of date.

Length 184 m; beam 27 m; draft 10 m.

Type: Ship (hazmat cat C). MMSI: 477860000.

Date/timePositionNaut miles runAvg speedWind from/ knotsBaromVisibWave heightAir tempDewpointWater temp
2016-Aug-03 04:33N 01°13' E 103°56'1211.7
2016-Aug-03 03:33N 01°07' E 103°45'6512.3
2016-Aug-02 22:14N 01°38' E 102°48'1810.6
2016-Aug-02 20:32N 01°46' E 102°32'1010.1
2016-Aug-02 19:33N 01°50' E 102°23'14 9.7
2016-Aug-02 18:08N 01°57' E 102°11'  
2016-Jul-29 02:21N 01°57' E 102°16'911.1
2016-Jul-29 01:33N 01°53' E 102°24'1211.4
2016-Jul-29 00:31N 01°48' E 102°35'7410.6
2016-Jul-28 17:33N 01°12' E 103°40'7 6.6
2016-Jul-28 16:33N 01°18' E 103°43'0 0.1
2016-Jul-28 15:30N 01°18' E 103°43'0 0.0
2016-Jul-28 14:06N 01°18' E 103°43'0 0.0
2016-Jul-28 13:18N 01°18' E 103°43'0 0.0
2016-Jul-28 12:06N 01°18' E 103°43'0 0.0
2016-Jul-28 11:24N 01°18' E 103°43'0 0.0
2016-Jul-28 10:30N 01°18' E 103°43'0 0.0
2016-Jul-28 08:06N 01°18' E 103°43'0 0.0
2016-Jul-28 07:24N 01°18' E 103°43'0 0.0
2016-Jul-28 05:15N 01°18' E 103°43'0 0.0
2016-Jul-28 04:30N 01°18' E 103°43'0 0.0
2016-Jul-28 03:30N 01°18' E 103°43'0 0.0
2016-Jul-28 01:23N 01°18' E 103°43'1 1.5
2016-Jul-28 00:32N 01°17' E 103°44'8 8.1
2016-Jul-27 23:33N 01°12' E 103°51'4 3.4
2016-Jul-27 22:30N 01°16' E 103°50'0 0.1
2016-Jul-27 21:33N 01°16' E 103°50'0 0.0
2016-Jul-27 20:30N 01°16' E 103°50'0 0.0
2016-Jul-27 19:30N 01°16' E 103°50'0 0.0
2016-Jul-27 18:33N 01°16' E 103°50'0 0.0
2016-Jul-27 17:33N 01°16' E 103°50'0 0.0
2016-Jul-27 16:33N 01°16' E 103°50'0 0.0
2016-Jul-27 15:32N 01°16' E 103°50'0 0.0
2016-Jul-27 14:32N 01°16' E 103°50'0 0.0
2016-Jul-27 13:32N 01°16' E 103°50'0 0.0
2016-Jul-27 12:29N 01°16' E 103°50'0 0.0
2016-Jul-27 11:32N 01°16' E 103°50'0 0.0
2016-Jul-27 10:32N 01°16' E 103°50'0 0.0
2016-Jul-27 09:26N 01°16' E 103°50'0 0.1
2016-Jul-27 08:32N 01°16' E 103°50'0 0.1
2016-Jul-27 07:32N 01°16' E 103°50'0 0.0
2016-Jul-27 06:32N 01°16' E 103°50'0 0.0
2016-Jul-27 05:32N 01°16' E 103°50'0 0.0
2016-Jul-27 04:32N 01°16' E 103°50'0 0.0
2016-Jul-27 03:32N 01°16' E 103°50'0 0.0
2016-Jul-27 02:32N 01°16' E 103°50'0 0.0
2016-Jul-27 01:32N 01°16' E 103°50'2 1.6
2016-Jul-27 00:33N 01°15' E 103°51'3 2.8
2016-Jul-26 23:33N 01°16' E 103°54'0 0.1
2016-Jul-26 22:18N 01°16' E 103°54'0 0.1
2016-Jul-26 21:18N 01°16' E 103°54'0 0.0
2016-Jul-26 20:24N 01°16' E 103°54'0 0.1
2016-Jul-26 19:24N 01°16' E 103°54'0 0.0
2016-Jul-26 18:27N 01°16' E 103°54'0 0.0
2016-Jul-26 17:29N 01°16' E 103°54'0 0.0
2016-Jul-26 16:33N 01°16' E 103°54'0 0.1
2016-Jul-26 15:30N 01°16' E 103°54'0 0.1
2016-Jul-26 14:30N 01°16' E 103°54'0 0.0
2016-Jul-26 13:29N 01°16' E 103°54'0 0.0
2016-Jul-26 12:30N 01°16' E 103°54'0 0.1
2016-Jul-26 11:29N 01°16' E 103°54'0 0.1
2016-Jul-26 10:24N 01°16' E 103°54'0 0.0
2016-Jul-26 09:33N 01°16' E 103°54'0 0.1
2016-Jul-26 08:29N 01°16' E 103°54'0 0.1
2016-Jul-26 07:24N 01°16' E 103°54'0 0.1
2016-Jul-26 06:24N 01°16' E 103°54'0 0.0
2016-Jul-26 05:23N 01°16' E 103°54'0 0.1
2016-Jul-26 04:29N 01°16' E 103°54'0 0.1
2016-Jul-26 03:17N 01°16' E 103°54'0 0.1
2016-Jul-26 01:23N 01°16' E 103°54'0 0.0
2016-Jul-26 00:32N 01°16' E 103°54'0 0.0
2016-Jul-25 23:29N 01°16' E 103°54'0 0.1
2016-Jul-25 22:29N 01°16' E 103°54'0 0.0
2016-Jul-25 21:32N 01°16' E 103°54'0 0.0
2016-Jul-25 20:29N 01°16' E 103°54'0 0.2
2016-Jul-25 19:32N 01°16' E 103°54'0 0.0
2016-Jul-25 18:32N 01°16' E 103°54'0 0.0
2016-Jul-25 17:26N 01°16' E 103°54'0 0.0
2016-Jul-25 15:23N 01°16' E 103°54'0 0.0
2016-Jul-25 14:23N 01°16' E 103°54'0 0.0
2016-Jul-25 13:29N 01°16' E 103°54'0 0.0
2016-Jul-25 12:29N 01°16' E 103°54'0 0.1
2016-Jul-25 11:32N 01°16' E 103°54'0 0.1
2016-Jul-25 10:26N 01°16' E 103°54'0 0.1
2016-Jul-25 09:32N 01°16' E 103°54'0 0.0
2016-Jul-25 08:26N 01°16' E 103°54'0 0.1
2016-Jul-25 07:29N 01°16' E 103°54'0 0.1
2016-Jul-25 06:29N 01°16' E 103°54'0 0.1
2016-Jul-25 05:29N 01°16' E 103°54'0 0.0
2016-Jul-25 04:27N 01°16' E 103°54'0 0.0
2016-Jul-25 03:20N 01°16' E 103°54'0 0.0
2016-Jul-25 02:29N 01°16' E 103°54'0 0.1
2016-Jul-25 01:17N 01°16' E 103°54'0 0.0
2016-Jul-25 00:32N 01°16' E 103°54'0 0.0
2016-Jul-24 23:26N 01°16' E 103°54'0 0.1
2016-Jul-24 22:29N 01°16' E 103°54'0 0.1
2016-Jul-24 21:29N 01°16' E 103°54'0 0.1
2016-Jul-24 20:26N 01°16' E 103°54'0 0.0
2016-Jul-24 19:29N 01°16' E 103°54'0 0.0
2016-Jul-24 18:29N 01°16' E 103°54'0 0.2
2016-Jul-24 17:29N 01°16' E 103°54'0 0.1
2016-Jul-24 16:29N 01°16' E 103°54'0 0.0
2016-Jul-24 15:32N 01°16' E 103°54'0 0.0
2016-Jul-24 14:29N 01°16' E 103°54'0 0.0
2016-Jul-24 13:29N 01°16' E 103°54'0 0.1
2016-Jul-24 12:29N 01°16' E 103°54'0 0.0
2016-Jul-24 11:23N 01°16' E 103°54'0 0.1
2016-Jul-24 10:29N 01°16' E 103°54'0 0.1
2016-Jul-24 09:29N 01°16' E 103°54'0 0.0
2016-Jul-24 08:32N 01°16' E 103°54'0 0.0
2016-Jul-24 07:20N 01°16' E 103°54'0 0.2
2016-Jul-24 06:32N 01°16' E 103°54'0 0.1
2016-Jul-24 05:32N 01°16' E 103°54'  

Dump ship's entire track history